Nashville, TN (37203)

2:51 AM CDT on April 27, 2015 (GMT -0500)
Richland-West End | | Change Station
CLOSE
Current Station
Personal Weather Station
Location: Nashville, TN
Elevation: 558 ft
Nearby Weather Stations

Elev 558 ft 36.13 °N, 86.83 °W | Updated 0 second ago

Clear
Clear
47.3 °F
Feels Like 47 °F
N
1.1
Wind Variable Wind from NNW
Gusts 2.5 mph

Today
High -- | Low -- °F
--% Chance of Precip.
Yesterday
High -- | Low -- °F
Precip. -- in
5:59 AM 7:31 PM
Waxing Gibbous, 63% visible
Pressure 29.90 in
Visibility 10.0 miles
Clouds Clear
Windchill 47 °F
Dew Point 43 °F
Humidity 85%
Rainfall 0.00 in
Snow Depth Not available.
UV 0.0 out of 12
Pollen 9.00 out of 12
Air Quality Not available.
Flu Activity Sporadic
METAR KBNA 270653Z 35005KT 10SM CLR 09/06 A2990 RMK AO2 SLP125 T00890061

More Conditions Fewer Conditions

Pressure 29.90 in
Visibility 10.0 miles
Clouds Clear
Windchill 47 °F
Dew Point 43 °F
Humidity 85%
Rainfall 0.00 in
Snow Depth Not available.
UV 0.0 out of 12
Pollen 9.00 out of 12
Air Quality Not available.
Flu Activity Sporadic
METAR KBNA 270653Z 35005KT 10SM CLR 09/06 A2990 RMK AO2 SLP125 T00890061

More Conditions Fewer Conditions

10-Day Weather Forecast

Almanac

Astronomy

Apr. 27, 2015 Rise Set
Actual Time
Civil Twilight
Nautical Twilight
Astronomical Twilight
Moon
Length of Visible Light
Length of Day
Tomorrow will be .
, % of the Moon is Illuminated

Today's Extremes

State Highs State Lows

Community

WunderPhotos

Upload Photos

1,817,277 photos uploaded!

WunderBlogs® & News

Nearby

Air Quality

  Air Quality AQ Index Pollutant
Not available.

Snow Depth

Station Depth Elevation

Earthquake Activity

City Distance Mag. Time & Date
Minimum magnitude displayed is 2.5.

Coastal Water Temperatures

Place Temperature

Stations

Nearby Weather Stations

Station Location Temp. Windchill Dew Point Humidity Wind Precip. Elev Updated Type